createdAt,value
2023-03-25T00:00:34.218Z,73.65
2023-03-25T00:03:03.440Z,64.75
2023-03-25T00:05:32.408Z,54.83
2023-03-25T00:08:02.141Z,49.33
2023-03-25T00:10:30.850Z,49.50
2023-03-25T00:13:05.786Z,47.92
2023-03-25T00:15:35.586Z,49.42
2023-03-25T00:18:04.383Z,48.28
2023-03-25T00:20:33.441Z,48.95
2023-03-25T00:23:02.143Z,50.88
2023-03-25T00:25:30.978Z,51.63
2023-03-25T00:27:59.662Z,47.65
2023-03-25T00:30:28.527Z,49.20
2023-03-25T00:32:58.802Z,49.13
2023-03-25T00:35:27.594Z,48.40
2023-03-25T00:38:01.172Z,47.78
2023-03-25T00:40:35.831Z,49.20
2023-03-25T00:43:05.859Z,48.97
2023-03-25T00:45:35.605Z,50.55
2023-03-25T00:48:06.752Z,51.42
2023-03-25T00:50:36.210Z,58.42
2023-03-25T00:53:05.043Z,52.28
2023-03-25T00:55:33.768Z,49.45
2023-03-25T00:58:03.483Z,49.78
2023-03-25T01:00:32.272Z,49.80
2023-03-25T01:03:04.843Z,46.42
2023-03-25T01:05:34.165Z,46.55
2023-03-25T01:08:03.179Z,45.65
2023-03-25T01:10:31.926Z,45.42
2023-03-25T01:13:00.622Z,45.25
2023-03-25T01:15:29.392Z,44.72
2023-03-25T01:17:58.175Z,43.22
2023-03-25T01:20:27.708Z,44.35
2023-03-25T01:22:56.478Z,43.60
2023-03-25T01:25:25.231Z,42.05
2023-03-25T01:27:54.045Z,44.47
2023-03-25T01:30:22.788Z,43.80
2023-03-25T01:32:51.613Z,44.47
2023-03-25T01:35:20.335Z,43.03
2023-03-25T01:37:49.407Z,42.28
2023-03-25T01:40:22.047Z,45.00
2023-03-25T01:42:51.438Z,43.60
2023-03-25T01:45:27.605Z,43.35
2023-03-25T01:48:03.857Z,44.78
2023-03-25T01:50:33.572Z,44.58
2023-03-25T01:53:06.322Z,41.97
2023-03-25T01:58:11.615Z,40.85
2023-03-25T02:00:42.314Z,42.65
2023-03-25T02:03:13.033Z,38.42
2023-03-25T02:06:00.838Z,42.22
2023-03-25T02:08:30.061Z,39.53
2023-03-25T02:10:59.091Z,41.45
2023-03-25T02:13:28.038Z,39.67
2023-03-25T02:16:17.935Z,38.10
2023-03-25T02:19:07.879Z,37.90
2023-03-25T02:22:06.968Z,39.78
2023-03-25T02:24:44.310Z,38.05
2023-03-25T02:27:28.211Z,40.35
2023-03-25T02:30:36.284Z,38.50
2023-03-25T02:33:44.215Z,38.63
2023-03-25T02:36:49.657Z,36.50
2023-03-25T02:39:40.090Z,37.08
2023-03-25T02:42:39.388Z,35.33
2023-03-25T02:45:23.027Z,36.10
2023-03-25T02:47:56.219Z,33.20
2023-03-25T02:50:32.083Z,35.13
2023-03-25T02:53:04.019Z,33.45
2023-03-25T02:55:34.429Z,35.00
2023-03-25T02:58:07.739Z,34.25
2023-03-25T03:00:39.198Z,33.33
2023-03-25T03:03:09.660Z,33.30
2023-03-25T03:05:44.854Z,32.85
2023-03-25T03:08:23.778Z,33.50
2023-03-25T03:11:13.613Z,33.97
2023-03-25T03:13:44.313Z,33.65
2023-03-25T03:16:18.194Z,33.17
2023-03-25T03:18:59.615Z,31.00
2023-03-25T03:21:42.422Z,32.00
2023-03-25T03:26:48.850Z,31.70
2023-03-25T03:29:21.977Z,31.60
2023-03-25T03:32:05.802Z,31.58
2023-03-25T03:34:45.769Z,30.02
2023-03-25T03:37:19.843Z,27.70
2023-03-25T03:39:50.315Z,29.40
2023-03-25T03:42:27.505Z,29.02
2023-03-25T03:45:02.690Z,29.55
2023-03-25T03:47:37.764Z,30.10
2023-03-25T03:50:12.274Z,32.20
2023-03-25T03:52:48.669Z,27.52
2023-03-25T03:55:25.019Z,28.48
2023-03-25T03:58:03.246Z,29.67
2023-03-25T04:00:43.009Z,30.08
2023-03-25T04:03:39.571Z,27.85
2023-03-25T04:06:25.698Z,29.95
2023-03-25T04:09:00.531Z,28.15
2023-03-25T04:11:39.302Z,28.05
2023-03-25T04:14:09.788Z,27.95
2023-03-25T04:16:38.747Z,26.55
2023-03-25T04:19:08.233Z,26.50
2023-03-25T04:21:37.126Z,27.92
2023-03-25T04:24:09.140Z,27.27
2023-03-25T04:26:39.163Z,28.75
2023-03-25T04:29:08.692Z,28.70
2023-03-25T04:31:38.666Z,29.52
2023-03-25T04:34:07.458Z,28.58
2023-03-25T04:36:38.822Z,27.65
2023-03-25T04:39:08.612Z,27.55
2023-03-25T04:41:37.387Z,27.90
2023-03-25T04:44:08.868Z,28.05
2023-03-25T04:46:38.930Z,25.85
2023-03-25T04:49:14.909Z,26.98
2023-03-25T04:51:45.881Z,27.00
2023-03-25T04:54:15.936Z,25.73
2023-03-25T04:56:48.674Z,26.50
2023-03-25T04:59:18.406Z,25.48
2023-03-25T05:01:47.978Z,24.05
2023-03-25T05:04:18.271Z,32.10
2023-03-25T05:06:52.174Z,26.45
2023-03-25T05:09:23.574Z,26.02
2023-03-25T05:11:53.920Z,27.83
2023-03-25T05:14:23.886Z,26.95
2023-03-25T05:16:52.661Z,27.77
2023-03-25T05:19:21.540Z,28.50
2023-03-25T05:21:50.744Z,27.88
2023-03-25T05:24:20.305Z,28.17
2023-03-25T05:26:49.027Z,28.55
2023-03-25T05:29:18.311Z,27.63
2023-03-25T05:31:49.477Z,26.63
2023-03-25T05:34:18.391Z,27.88
2023-03-25T05:36:47.244Z,27.63
2023-03-25T05:39:16.264Z,29.75
2023-03-25T05:41:47.041Z,27.63
2023-03-25T05:44:15.824Z,28.17
2023-03-25T05:46:45.061Z,25.50
2023-03-25T05:49:13.784Z,24.60
2023-03-25T05:51:42.992Z,24.20
2023-03-25T05:54:12.166Z,24.83
2023-03-25T05:56:42.381Z,23.52
2023-03-25T05:59:11.423Z,24.30
2023-03-25T06:01:40.213Z,24.63
2023-03-25T06:04:11.056Z,24.35
2023-03-25T06:06:40.764Z,25.08
2023-03-25T06:09:09.880Z,23.38
2023-03-25T06:11:47.617Z,24.95
2023-03-25T06:14:16.368Z,22.55
2023-03-25T06:16:45.192Z,24.08
2023-03-25T06:19:13.903Z,23.00
2023-03-25T06:21:42.636Z,22.70
2023-03-25T06:24:11.458Z,21.05
2023-03-25T06:26:40.203Z,20.73
2023-03-25T06:29:10.091Z,20.73
2023-03-25T06:31:38.865Z,19.15
2023-03-25T06:34:07.579Z,20.88
2023-03-25T06:36:36.321Z,21.15
2023-03-25T06:39:06.773Z,20.38
2023-03-25T06:41:37.084Z,19.73
2023-03-25T06:44:06.340Z,20.33
2023-03-25T06:46:35.102Z,20.90
2023-03-25T06:49:03.909Z,19.23
2023-03-25T06:51:32.964Z,18.98
2023-03-25T06:54:01.883Z,18.80
2023-03-25T06:56:30.780Z,20.60
2023-03-25T06:58:59.580Z,19.25
2023-03-25T07:01:28.432Z,18.63
2023-03-25T07:03:57.504Z,19.67
2023-03-25T07:06:26.602Z,18.85
2023-03-25T07:08:55.314Z,18.25
2023-03-25T07:11:33.444Z,19.00
2023-03-25T07:14:02.334Z,17.55
2023-03-25T07:16:31.656Z,19.33
2023-03-25T07:19:00.478Z,17.35
2023-03-25T07:21:29.808Z,17.83
2023-03-25T07:23:58.577Z,18.33
2023-03-25T07:26:27.314Z,18.17
2023-03-25T07:28:56.095Z,17.08
2023-03-25T07:31:27.425Z,16.80
2023-03-25T07:33:56.736Z,16.20
2023-03-25T07:36:26.282Z,16.17
2023-03-25T07:38:56.977Z,21.27
2023-03-25T07:41:25.949Z,15.80
2023-03-25T07:43:54.782Z,20.48
2023-03-25T07:46:23.557Z,17.08
2023-03-25T07:48:52.266Z,16.30
2023-03-25T07:51:21.317Z,24.60
2023-03-25T07:53:51.197Z,16.13
2023-03-25T07:56:19.926Z,15.85
2023-03-25T07:58:50.612Z,16.20
2023-03-25T08:01:19.375Z,16.10
2023-03-25T08:03:48.314Z,16.85
2023-03-25T08:06:17.080Z,15.13
2023-03-25T08:08:46.523Z,16.02
2023-03-25T08:11:15.487Z,15.95
2023-03-25T08:13:44.211Z,15.85
2023-03-25T08:16:15.476Z,16.73
2023-03-25T08:18:45.964Z,15.95
2023-03-25T08:21:15.524Z,14.95
2023-03-25T08:23:45.502Z,14.52
2023-03-25T08:26:14.450Z,15.35
2023-03-25T08:28:43.151Z,14.88
2023-03-25T08:31:12.885Z,14.43
2023-03-25T08:33:42.656Z,16.88
2023-03-25T08:36:15.131Z,15.23
2023-03-25T08:41:14.918Z,16.00
2023-03-25T08:43:45.089Z,14.40
2023-03-25T08:46:14.681Z,14.00
2023-03-25T08:48:44.931Z,16.75
2023-03-25T08:51:14.359Z,16.35
2023-03-25T08:53:43.345Z,27.45
2023-03-25T08:56:12.356Z,14.88
2023-03-25T08:58:41.719Z,13.77
2023-03-25T09:01:10.493Z,13.57
2023-03-25T09:03:41.944Z,13.93
2023-03-25T09:06:11.310Z,14.65
2023-03-25T09:08:40.034Z,14.82
2023-03-25T09:11:09.089Z,13.57
2023-03-25T09:13:37.846Z,14.38
2023-03-25T09:16:07.286Z,15.50
2023-03-25T09:18:37.739Z,14.60
2023-03-25T09:21:06.789Z,14.30
2023-03-25T09:23:35.622Z,14.40
2023-03-25T09:26:06.190Z,19.70
2023-03-25T09:28:34.968Z,17.50
2023-03-25T09:31:03.763Z,14.15
2023-03-25T09:33:32.609Z,14.82
2023-03-25T09:36:01.458Z,15.10
2023-03-25T09:38:30.637Z,15.05
2023-03-25T09:40:59.352Z,14.32
2023-03-25T09:43:32.544Z,15.20
2023-03-25T09:46:02.285Z,15.50
2023-03-25T09:48:36.624Z,15.35
2023-03-25T09:51:08.951Z,14.95
2023-03-25T09:53:41.636Z,14.80
2023-03-25T09:56:17.865Z,13.82
2023-03-25T09:58:59.525Z,14.75
2023-03-25T10:01:35.852Z,14.60
2023-03-25T10:04:43.936Z,13.98
2023-03-25T10:07:32.705Z,13.93
2023-03-25T10:10:28.600Z,14.00
2023-03-25T10:13:01.813Z,14.35
2023-03-25T10:15:35.945Z,14.88
2023-03-25T10:18:25.811Z,15.80
2023-03-25T10:21:07.201Z,15.88
2023-03-25T10:24:15.141Z,14.80
2023-03-25T10:26:44.764Z,14.55
2023-03-25T10:29:18.908Z,15.35
2023-03-25T10:31:54.609Z,14.75
2023-03-25T10:34:36.137Z,23.05
2023-03-25T10:37:13.381Z,35.50
2023-03-25T10:39:46.574Z,14.60
2023-03-25T10:42:27.574Z,16.98
2023-03-25T10:44:56.897Z,16.02
2023-03-25T10:47:34.233Z,14.30
2023-03-25T10:50:03.511Z,15.52
2023-03-25T10:52:32.701Z,15.25
2023-03-25T10:55:01.501Z,16.58
2023-03-25T10:57:32.755Z,17.08
2023-03-25T11:00:03.402Z,15.90
2023-03-25T11:02:34.948Z,15.85
2023-03-25T11:05:07.522Z,16.67
2023-03-25T11:07:41.197Z,16.67
2023-03-25T11:10:16.864Z,22.17
2023-03-25T11:12:48.812Z,21.73
2023-03-25T11:15:22.134Z,17.02
2023-03-25T11:18:01.806Z,16.45
2023-03-25T11:20:38.813Z,15.55
2023-03-25T11:23:17.871Z,19.85
2023-03-25T11:25:47.175Z,16.42
2023-03-25T11:28:36.441Z,15.45
2023-03-25T11:31:12.611Z,21.20
2023-03-25T11:33:43.174Z,17.17
2023-03-25T11:36:13.605Z,16.58
2023-03-25T11:38:42.762Z,15.88
2023-03-25T11:41:14.633Z,16.27
2023-03-25T11:43:43.730Z,20.52
2023-03-25T11:46:16.693Z,16.70
2023-03-25T11:48:48.366Z,17.25
2023-03-25T11:51:29.678Z,19.47
2023-03-25T11:54:03.937Z,18.98
2023-03-25T11:56:37.464Z,27.75
2023-03-25T11:59:19.380Z,23.08
2023-03-25T12:01:49.864Z,18.67
2023-03-25T12:04:22.007Z,22.05
2023-03-25T12:06:59.167Z,17.33
2023-03-25T12:09:31.115Z,19.08
2023-03-25T12:12:02.006Z,17.83
2023-03-25T12:14:50.846Z,17.33
2023-03-25T12:17:34.626Z,18.38
2023-03-25T12:20:30.928Z,17.13
2023-03-25T12:23:06.759Z,19.00
2023-03-25T12:25:48.936Z,19.35
2023-03-25T12:28:22.291Z,17.42
2023-03-25T12:30:59.740Z,17.90
2023-03-25T12:33:56.000Z,17.35
2023-03-25T12:36:44.775Z,20.42
2023-03-25T12:39:16.118Z,18.05
2023-03-25T12:42:11.336Z,21.52
2023-03-25T12:45:08.675Z,19.02
2023-03-25T12:47:43.884Z,20.15
2023-03-25T12:50:27.803Z,19.77
2023-03-25T12:53:29.201Z,18.92
2023-03-25T12:56:29.262Z,20.92
2023-03-25T12:59:19.079Z,21.08
2023-03-25T13:02:03.752Z,24.00
2023-03-25T13:04:50.348Z,21.13
2023-03-25T13:07:25.870Z,21.45
2023-03-25T13:10:22.279Z,22.17
2023-03-25T13:12:58.513Z,22.42
2023-03-25T13:15:38.910Z,23.55
2023-03-25T13:18:31.139Z,23.45
2023-03-25T13:21:09.038Z,22.67
2023-03-25T13:23:44.866Z,26.33
2023-03-25T13:26:19.704Z,23.60
2023-03-25T13:28:57.084Z,28.38
2023-03-25T13:31:36.336Z,24.35
2023-03-25T13:34:34.275Z,23.40
2023-03-25T13:37:26.841Z,25.63
2023-03-25T13:40:15.121Z,23.67
2023-03-25T13:43:09.164Z,24.20
2023-03-25T13:46:05.163Z,24.90
2023-03-25T13:48:42.878Z,23.88
2023-03-25T13:51:12.192Z,26.48
2023-03-25T13:53:51.111Z,26.08
2023-03-25T13:56:49.886Z,23.63
2023-03-25T13:59:40.207Z,25.85
2023-03-25T14:02:30.342Z,27.00
2023-03-25T14:05:10.345Z,24.73
2023-03-25T14:07:49.163Z,28.25
2023-03-25T14:10:41.391Z,24.63
2023-03-25T14:13:16.726Z,24.40
2023-03-25T14:16:13.644Z,24.48
2023-03-25T14:18:47.330Z,24.33
2023-03-25T14:21:25.576Z,29.50
2023-03-25T14:24:05.752Z,26.25
2023-03-25T14:26:37.131Z,28.00
2023-03-25T14:29:14.050Z,27.15
2023-03-25T14:32:03.264Z,25.00
2023-03-25T14:34:32.271Z,29.13
2023-03-25T14:37:05.816Z,22.60
2023-03-25T14:39:35.434Z,23.27
2023-03-25T14:42:09.404Z,25.70
2023-03-25T14:44:42.596Z,26.13
2023-03-25T14:47:21.673Z,22.67
2023-03-25T14:50:26.073Z,27.00
2023-03-25T14:53:05.648Z,24.58
2023-03-25T14:55:43.196Z,23.55
2023-03-25T14:58:29.181Z,21.35
2023-03-25T15:01:05.963Z,22.48
2023-03-25T15:03:39.424Z,23.70
2023-03-25T15:06:11.856Z,24.00
2023-03-25T15:08:44.382Z,25.48
2023-03-25T15:11:17.825Z,21.98
2023-03-25T15:13:53.751Z,25.92
2023-03-25T15:16:39.126Z,24.20
2023-03-25T15:19:12.355Z,24.40
2023-03-25T15:22:02.406Z,26.63
2023-03-25T15:24:35.750Z,25.50
2023-03-25T15:27:11.797Z,24.17
2023-03-25T15:29:46.033Z,28.35
2023-03-25T15:32:23.326Z,25.52
2023-03-25T15:35:13.107Z,25.30
2023-03-25T15:37:58.451Z,24.15
2023-03-25T15:40:34.199Z,25.73
2023-03-25T15:43:47.166Z,26.00
2023-03-25T15:46:28.664Z,24.95
2023-03-25T15:49:32.650Z,26.08
2023-03-25T15:52:40.538Z,26.80
2023-03-25T15:55:15.886Z,29.00
2023-03-25T15:57:49.029Z,28.50
2023-03-25T16:00:27.623Z,29.77
2023-03-25T16:03:17.240Z,26.52
2023-03-25T16:05:52.297Z,26.25
2023-03-25T16:08:33.459Z,24.27
2023-03-25T16:11:22.374Z,27.50
2023-03-25T16:14:04.436Z,28.05
2023-03-25T16:16:36.916Z,27.03
2023-03-25T16:19:10.830Z,27.60
2023-03-25T16:21:39.933Z,28.98
2023-03-25T16:24:10.843Z,28.23
2023-03-25T16:26:49.103Z,28.17
2023-03-25T16:29:24.709Z,27.33
2023-03-25T16:32:04.810Z,27.00
2023-03-25T16:34:38.907Z,28.40
2023-03-25T16:37:08.738Z,27.83
2023-03-25T16:39:39.057Z,28.25
2023-03-25T16:42:18.986Z,28.35
2023-03-25T16:44:48.474Z,28.65
2023-03-25T16:47:18.484Z,28.40
2023-03-25T16:49:50.021Z,30.80
2023-03-25T16:52:25.137Z,30.77
2023-03-25T16:54:54.760Z,30.27
2023-03-25T16:57:29.765Z,26.83
2023-03-25T17:03:47.968Z,29.60
2023-03-25T17:06:27.179Z,33.85
2023-03-25T17:08:59.832Z,30.40
2023-03-25T17:14:08.673Z,30.73
2023-03-25T17:16:39.360Z,31.83
2023-03-25T17:19:09.043Z,32.88
2023-03-25T17:21:39.292Z,35.97
2023-03-25T17:24:24.875Z,35.47
2023-03-25T17:27:06.361Z,36.13
2023-03-25T17:29:35.136Z,32.10
2023-03-25T17:32:03.848Z,37.20
2023-03-25T17:34:38.233Z,33.85
2023-03-25T17:37:09.310Z,34.72
2023-03-25T17:39:38.159Z,34.85
2023-03-25T17:42:09.997Z,39.75
2023-03-25T17:44:41.003Z,35.53
2023-03-25T17:47:15.523Z,36.00
2023-03-25T17:49:44.493Z,37.10
2023-03-25T17:52:13.754Z,35.28
2023-03-25T17:54:42.540Z,35.17
2023-03-25T17:57:20.570Z,35.80
2023-03-25T17:59:49.980Z,35.58
2023-03-25T18:02:19.152Z,36.38
2023-03-25T18:04:48.017Z,37.53
2023-03-25T18:07:17.138Z,38.83
2023-03-25T18:09:45.899Z,37.00
2023-03-25T18:12:14.715Z,41.70
2023-03-25T18:14:44.985Z,39.35
2023-03-25T18:17:14.857Z,37.20
2023-03-25T18:19:43.639Z,38.60
2023-03-25T18:22:19.868Z,39.53
2023-03-25T18:24:48.775Z,39.30
2023-03-25T18:27:17.609Z,37.72
2023-03-25T18:29:46.365Z,37.83
2023-03-25T18:32:15.154Z,38.85
2023-03-25T18:34:44.049Z,38.38
2023-03-25T18:37:13.497Z,41.25
2023-03-25T18:39:42.202Z,40.25
2023-03-25T18:42:10.924Z,39.83
2023-03-25T18:44:39.781Z,41.38
2023-03-25T18:47:09.847Z,40.83
2023-03-25T18:49:38.952Z,39.78
2023-03-25T18:52:11.308Z,41.60
2023-03-25T18:54:40.054Z,41.78
2023-03-25T18:57:09.801Z,41.30
2023-03-25T18:59:38.633Z,41.85
2023-03-25T19:02:07.397Z,42.13
2023-03-25T19:04:39.827Z,47.08
2023-03-25T19:07:12.172Z,42.85
2023-03-25T19:09:41.286Z,43.22
2023-03-25T19:12:10.905Z,43.45
2023-03-25T19:14:39.604Z,40.83
2023-03-25T19:17:09.104Z,40.20
2023-03-25T19:19:39.184Z,40.50
2023-03-25T19:22:10.312Z,40.35
2023-03-25T19:24:39.128Z,39.92
2023-03-25T19:27:08.964Z,39.17
2023-03-25T19:29:38.903Z,40.33
2023-03-25T19:32:08.363Z,40.22
2023-03-25T19:34:37.065Z,42.63
2023-03-25T19:37:08.758Z,40.95
2023-03-25T19:39:37.467Z,41.78
2023-03-25T19:42:06.496Z,40.70
2023-03-25T19:44:35.205Z,41.42
2023-03-25T19:47:04.260Z,41.58
2023-03-25T19:49:39.164Z,45.03
2023-03-25T19:52:08.963Z,42.70
2023-03-25T19:54:37.706Z,41.15
2023-03-25T19:57:06.665Z,43.20
2023-03-25T19:59:35.446Z,42.25
2023-03-25T20:02:04.531Z,41.42
2023-03-25T20:04:35.062Z,41.50
2023-03-25T20:07:04.259Z,42.65
2023-03-25T20:09:33.058Z,40.78
2023-03-25T20:12:01.779Z,42.40
2023-03-25T20:14:30.578Z,43.05
2023-03-25T20:16:59.295Z,43.45
2023-03-25T20:19:28.147Z,42.13
2023-03-25T20:21:56.935Z,41.80
2023-03-25T20:24:25.801Z,42.33
2023-03-25T20:26:54.632Z,42.95
2023-03-25T20:29:24.934Z,44.08
2023-03-25T20:31:53.642Z,43.28
2023-03-25T20:34:23.511Z,45.75
2023-03-25T20:36:52.278Z,43.22
2023-03-25T20:39:21.438Z,42.22
2023-03-25T20:41:50.436Z,43.40
2023-03-25T20:44:19.768Z,41.25
2023-03-25T20:46:48.639Z,41.88
2023-03-25T20:49:20.916Z,42.63
2023-03-25T20:51:51.823Z,44.90
2023-03-25T20:54:20.591Z,42.63
2023-03-25T20:56:52.064Z,43.90
2023-03-25T20:59:21.574Z,42.60
2023-03-25T21:01:54.099Z,44.13
2023-03-25T21:04:24.129Z,42.35
2023-03-25T21:06:54.391Z,43.13
2023-03-25T21:09:23.243Z,42.97
2023-03-25T21:11:52.554Z,42.55
2023-03-25T21:14:21.580Z,42.45
2023-03-25T21:16:50.438Z,42.08
2023-03-25T21:19:19.964Z,41.13
2023-03-25T21:21:48.793Z,43.45
2023-03-25T21:24:22.315Z,43.72
2023-03-25T21:26:51.180Z,43.08
2023-03-25T21:29:21.881Z,42.78
2023-03-25T21:31:50.653Z,41.92
2023-03-25T21:34:19.507Z,42.42
2023-03-25T21:36:48.177Z,41.05
2023-03-25T21:39:17.016Z,42.03
2023-03-25T21:41:45.741Z,42.30
2023-03-25T21:44:16.891Z,43.40
2023-03-25T21:46:45.591Z,41.72
2023-03-25T21:49:14.864Z,41.78
2023-03-25T21:51:45.195Z,41.53
2023-03-25T21:54:16.339Z,41.85
2023-03-25T21:56:45.090Z,41.88
2023-03-25T21:59:16.642Z,41.80
2023-03-25T22:01:46.385Z,41.42
2023-03-25T22:04:15.186Z,40.17
2023-03-25T22:06:43.909Z,42.42
2023-03-25T22:09:12.654Z,41.50
2023-03-25T22:11:41.424Z,42.13
2023-03-25T22:14:10.700Z,44.78
2023-03-25T22:16:39.631Z,42.35
2023-03-25T22:19:08.802Z,43.75
2023-03-25T22:21:38.486Z,43.35
2023-03-25T22:24:08.958Z,41.88
2023-03-25T22:26:40.706Z,43.53
2023-03-25T22:29:10.898Z,44.78
2023-03-25T22:31:41.240Z,45.47
2023-03-25T22:34:13.378Z,43.17
2023-03-25T22:36:47.154Z,42.00
2023-03-25T22:39:15.923Z,42.38
2023-03-25T22:41:44.964Z,43.10
2023-03-25T22:44:15.931Z,44.38
2023-03-25T22:46:45.131Z,45.05
2023-03-25T22:49:15.254Z,46.60
2023-03-25T22:51:44.342Z,44.67
2023-03-25T22:54:13.135Z,44.25
2023-03-25T22:56:44.422Z,46.47
2023-03-25T22:59:15.289Z,45.47
2023-03-25T23:01:44.427Z,46.08
2023-03-25T23:04:14.059Z,46.63
2023-03-25T23:06:45.285Z,44.47
2023-03-25T23:09:37.455Z,46.60
2023-03-25T23:12:06.450Z,45.33
2023-03-25T23:14:35.289Z,44.97
2023-03-25T23:17:04.094Z,45.00
2023-03-25T23:19:32.860Z,45.03
2023-03-25T23:22:03.386Z,51.22
2023-03-25T23:24:35.101Z,46.67
2023-03-25T23:27:06.100Z,45.75
2023-03-25T23:29:37.058Z,45.53
2023-03-25T23:32:07.872Z,46.65
2023-03-25T23:34:36.878Z,47.20
2023-03-25T23:37:08.490Z,49.30
2023-03-25T23:39:37.870Z,49.97
2023-03-25T23:42:06.718Z,46.88
2023-03-25T23:44:35.619Z,44.88
2023-03-25T23:47:04.897Z,47.10
2023-03-25T23:49:35.374Z,46.53
2023-03-25T23:52:04.101Z,47.65
2023-03-25T23:54:34.465Z,48.95
2023-03-25T23:57:03.194Z,49.28
2023-03-25T23:59:31.968Z,46.38
